aviador You're here:

KTDR Decoded Metar

in
Report Time2017-08-16 14:56:00
UTC Time2017-08-16 15:07:46
Flight Rules mvfr MVFR
Wind280° at 04 kt
W.Rank280° ranks 30
Current wind is below 280° avg. (5.9)
Visibility9999 m
Phenomena:N/A
Clouds:Broken 025 Hf
Expected CloudBase > 2,000 ft AGL from Temp-Dew spread
Ceiling2,500 ft
Temp30°C
Dew Point25°C (75% RH)
Heat Index36.3°C
QNH1019 hPa
Raw Report
KTDR 161456Z AUTO 28004KT 10SM BKN025 30/25 A3009 RMK AO2 SLP193
T03040250 50006=

Extra information for KTDR:More info

Social comments